Time;durP1;ratioP1;P1;durP2;ratioP2;P2;SDS_P1;SDS_P2;PMS_P1;PMS_P2;Temp;Humidity;BMP_temperature;BMP_pressure;BME280_temperature;BME280_humidity;BME280_pressure;Samples;Min_cycle;Max_cycle;Signal;HPM_P1;HPM_P2
2022/10/10 00:02:10;;;;;;;0.80;0.60;;;12.60;99.90;;;;;;5075933;28;20445;-80
2022/10/10 00:04:38;;;;;;;1.80;0.60;;;12.60;99.90;;;;;;5075670;28;20477;-81
2022/10/10 00:07:05;;;;;;;1.10;0.70;;;12.60;99.90;;;;;;5076166;28;20540;-81
2022/10/10 00:09:32;;;;;;;0.70;0.70;;;12.60;99.90;;;;;;5075917;28;20815;-81
2022/10/10 00:11:58;;;;;;;1.47;0.77;;;12.60;99.90;;;;;;5075841;28;20953;-81
2022/10/10 00:14:25;;;;;;;0.97;0.67;;;12.60;99.90;;;;;;5075863;28;21015;-81
2022/10/10 00:16:52;;;;;;;1.57;1.50;;;12.70;99.90;;;;;;5075728;28;20972;-81
2022/10/10 00:19:20;;;;;;;1.30;1.20;;;12.60;99.90;;;;;;5075991;28;20449;-81
2022/10/10 00:21:47;;;;;;;1.53;0.90;;;12.60;99.90;;;;;;5075948;28;20453;-81
2022/10/10 00:24:14;;;;;;;1.67;0.70;;;12.50;99.90;;;;;;5075694;28;20480;-81
2022/10/10 00:26:40;;;;;;;0.80;0.60;;;12.50;99.90;;;;;;5075546;28;20956;-81
2022/10/10 00:29:07;;;;;;;2.23;0.90;;;12.60;99.90;;;;;;5076373;28;20449;-80
2022/10/10 00:31:34;;;;;;;1.13;1.00;;;12.60;99.90;;;;;;5075450;28;20945;-80
2022/10/10 00:34:01;;;;;;;1.23;1.00;;;12.60;99.90;;;;;;5075389;28;20826;-80
2022/10/10 00:36:29;;;;;;;0.60;0.60;;;12.50;99.90;;;;;;5075572;28;20481;-81
2022/10/10 00:38:56;;;;;;;0.97;0.70;;;12.60;99.90;;;;;;5075649;28;20453;-80
2022/10/10 00:41:25;;;;;;;2.10;0.90;;;12.60;99.90;;;;;;5075729;28;20446;-81
2022/10/10 00:44:07;;;;;;;0.50;0.43;;;12.60;99.90;;;;;;5075368;28;20507;-80
2022/10/10 00:46:34;;;;;;;0.60;0.50;;;12.50;99.90;;;;;;5076585;28;20432;-80
2022/10/10 00:49:02;;;;;;;1.30;1.03;;;12.60;99.90;;;;;;5075385;28;20955;-81
2022/10/10 00:51:31;;;;;;;0.90;0.80;;;12.60;99.90;;;;;;5075479;28;20437;-80
2022/10/10 00:54:02;;;;;;;2.50;1.00;;;12.50;99.90;;;;;;5075154;28;20466;-81
2022/10/10 00:56:33;;;;;;;1.30;1.20;;;12.50;99.90;;;;;;5075305;28;20519;-80
2022/10/10 00:59:04;;;;;;;2.00;0.90;;;12.50;99.90;;;;;;5075734;28;20794;-80
2022/10/10 01:01:31;;;;;;;1.53;0.70;;;12.60;99.90;;;;;;5075244;28;20434;-81
2022/10/10 01:03:59;;;;;;;1.57;0.80;;;12.50;99.90;;;;;;5074669;28;20825;-81
2022/10/10 01:06:26;;;;;;;2.87;0.80;;;12.50;99.90;;;;;;5075140;28;20448;-80
2022/10/10 01:08:55;;;;;;;1.37;0.70;;;12.50;99.90;;;;;;5075138;28;20464;-81
2022/10/10 01:11:39;;;;;;;2.20;0.90;;;12.50;99.90;;;;;;5075021;28;20488;-81
2022/10/10 01:14:14;;;;;;;1.57;0.80;;;12.50;99.90;;;;;;5074925;28;20461;-80
2022/10/10 01:16:47;;;;;;;1.70;0.80;;;12.50;99.90;;;;;;5074979;28;20492;-80
2022/10/10 01:19:49;;;;;;;1.87;0.73;;;12.50;99.90;;;;;;5074940;28;20437;-81
2022/10/10 01:22:26;;;;;;;2.13;0.97;;;12.50;99.90;;;;;;5018415;28;20452;-81
2022/10/10 01:25:09;;;;;;;1.63;1.17;;;12.50;99.90;;;;;;5074859;28;20496;-80
2022/10/10 01:27:41;;;;;;;2.30;1.20;;;12.40;99.90;;;;;;5074360;28;20438;-81
2022/10/10 01:30:11;;;;;;;1.47;0.83;;;12.40;99.90;;;;;;5074712;28;20441;-80
2022/10/10 01:32:41;;;;;;;1.93;0.53;;;12.40;99.90;;;;;;5074572;28;20442;-80
2022/10/10 01:35:38;;;;;;;1.47;0.73;;;12.40;99.90;;;;;;5074540;28;20481;-81
2022/10/10 01:38:13;;;;;;;2.20;1.40;;;12.40;99.90;;;;;;5074537;28;20452;-80
2022/10/10 01:40:47;;;;;;;1.37;0.80;;;12.40;99.90;;;;;;5074426;28;20429;-81
2022/10/10 01:43:14;;;;;;;0.50;0.50;;;12.40;99.90;;;;;;5074452;28;20444;-81
2022/10/10 01:45:45;;;;;;;1.67;1.00;;;12.40;99.90;;;;;;5074261;28;20473;-80
2022/10/10 01:48:13;;;;;;;1.20;1.20;;;12.40;99.90;;;;;;5074358;28;20446;-81
2022/10/10 01:50:56;;;;;;;1.70;0.90;;;12.40;99.90;;;;;;5073946;28;20440;-80
2022/10/10 01:53:29;;;;;;;0.97;0.90;;;12.40;99.90;;;;;;5074178;28;20430;-81
2022/10/10 01:56:02;;;;;;;1.37;0.90;;;12.40;99.90;;;;;;5073990;28;20495;-81
2022/10/10 01:59:00;;;;;;;1.17;1.07;;;12.40;99.90;;;;;;5074058;28;20438;-81
2022/10/10 02:01:36;;;;;;;1.90;1.00;;;12.40;99.90;;;;;;5073984;28;20441;-81
2022/10/10 02:04:09;;;;;;;0.73;0.60;;;12.40;99.90;;;;;;5073012;28;20841;-80
2022/10/10 02:06:40;;;;;;;0.80;0.80;;;12.40;99.90;;;;;;5073674;28;20913;-81
2022/10/10 02:09:11;;;;;;;1.47;0.80;;;12.30;99.90;;;;;;5073918;28;20485;-80
2022/10/10 02:11:40;;;;;;;0.90;0.90;;;12.30;99.90;;;;;;5073842;28;20433;-81
2022/10/10 02:14:12;;;;;;;0.97;0.70;;;12.20;99.90;;;;;;5073742;28;20466;-81
2022/10/10 02:16:45;;;;;;;0.60;0.60;;;12.30;99.90;;;;;;5073677;28;20474;-81
2022/10/10 02:19:16;;;;;;;2.40;1.10;;;12.30;99.90;;;;;;5073965;28;20468;-81
2022/10/10 02:21:44;;;;;;;1.10;0.87;;;12.30;99.90;;;;;;5073926;28;20432;-81
2022/10/10 02:24:13;;;;;;;0.70;0.70;;;12.30;99.90;;;;;;5073257;28;20461;-80
2022/10/10 02:26:43;;;;;;;1.50;0.87;;;12.30;99.90;;;;;;5073703;28;20446;-81
2022/10/10 02:29:15;;;;;;;1.43;1.13;;;12.30;99.90;;;;;;5073652;28;20433;-81
2022/10/10 02:31:48;;;;;;;2.10;0.63;;;12.30;99.90;;;;;;5073314;28;20437;-81
2022/10/10 02:34:18;;;;;;;1.63;1.00;;;12.30;99.90;;;;;;5073211;28;21056;-81
2022/10/10 02:36:49;;;;;;;0.70;0.50;;;12.20;99.90;;;;;;5073392;28;20477;-81
2022/10/10 02:39:19;;;;;;;1.73;1.27;;;12.20;99.90;;;;;;5073507;28;20421;-81
2022/10/10 02:41:48;;;;;;;1.67;0.93;;;12.20;99.90;;;;;;5073432;28;20434;-81
2022/10/10 02:44:15;;;;;;;0.60;0.40;;;12.20;99.90;;;;;;5073324;28;20469;-81
2022/10/10 02:46:43;;;;;;;3.67;1.03;;;12.20;99.90;;;;;;5073570;28;20449;-81
2022/10/10 02:49:11;;;;;;;1.30;1.20;;;12.20;99.90;;;;;;5073362;28;20448;-81
2022/10/10 02:51:39;;;;;;;1.17;0.67;;;12.10;99.90;;;;;;5073321;28;20472;-82
2022/10/10 02:54:06;;;;;;;1.47;0.83;;;12.20;99.90;;;;;;5076424;28;20473;-80
2022/10/10 02:56:33;;;;;;;0.80;0.80;;;12.10;99.90;;;;;;5073328;28;20481;-81
2022/10/10 02:58:59;;;;;;;0.80;0.70;;;12.10;99.90;;;;;;5073034;28;20941;-81
2022/10/10 03:01:26;;;;;;;0.93;0.90;;;12.10;99.90;;;;;;5073091;28;20446;-81
2022/10/10 03:03:54;;;;;;;1.60;1.13;;;12.00;99.90;;;;;;5072807;28;20489;-81
2022/10/10 03:06:21;;;;;;;0.87;0.70;;;12.00;99.90;;;;;;5073001;28;20449;-81
2022/10/10 03:08:48;;;;;;;1.77;1.10;;;12.10;99.90;;;;;;5072980;28;20432;-81
2022/10/10 03:11:16;;;;;;;3.60;0.90;;;12.10;99.90;;;;;;5073103;28;20445;-81
2022/10/10 03:13:42;;;;;;;4.17;0.80;;;12.10;99.90;;;;;;5073327;28;20449;-81
2022/10/10 03:16:10;;;;;;;2.43;0.70;;;12.00;99.90;;;;;;5073652;28;20485;-81
2022/10/10 03:18:36;;;;;;;1.80;1.17;;;12.00;99.90;;;;;;5076854;28;20799;-81
2022/10/10 03:21:05;;;;;;;0.67;0.67;;;12.00;99.90;;;;;;5076982;28;20448;-81
2022/10/10 03:23:33;;;;;;;1.37;0.90;;;12.10;99.90;;;;;;5077032;28;20444;-79
2022/10/10 03:26:00;;;;;;;0.70;0.70;;;12.10;99.90;;;;;;5076992;28;20522;-79
2022/10/10 03:28:26;;;;;;;0.73;0.73;;;12.10;99.90;;;;;;5076865;28;20449;-79
2022/10/10 03:30:53;;;;;;;0.80;0.57;;;12.20;99.90;;;;;;5076832;28;20453;-79
2022/10/10 03:33:20;;;;;;;1.20;0.70;;;12.10;99.90;;;;;;5076914;28;20437;-79
2022/10/10 03:35:47;;;;;;;0.60;0.60;;;12.20;99.90;;;;;;5076653;28;20492;-79
2022/10/10 03:38:16;;;;;;;1.40;1.03;;;12.20;99.90;;;;;;5076855;28;20445;-79
2022/10/10 03:40:44;;;;;;;1.90;0.70;;;12.20;99.90;;;;;;5076781;28;20456;-79
2022/10/10 03:43:13;;;;;;;0.90;0.67;;;12.20;99.90;;;;;;5077167;28;20885;-79
2022/10/10 03:45:42;;;;;;;0.90;0.50;;;12.20;99.90;;;;;;5077028;28;20469;-79
2022/10/10 03:48:09;;;;;;;4.57;1.13;;;12.20;99.90;;;;;;5076574;28;20452;-79
2022/10/10 03:50:36;;;;;;;1.47;1.37;;;12.20;99.90;;;;;;5076496;28;20449;-79
2022/10/10 03:53:02;;;;;;;0.50;0.50;;;12.20;99.90;;;;;;5076362;28;20449;-79
2022/10/10 03:55:31;;;;;;;0.90;0.70;;;12.20;99.90;;;;;;5076270;28;20460;-79
2022/10/10 03:57:58;;;;;;;1.23;0.60;;;12.30;99.90;;;;;;5075964;28;20456;-79
2022/10/10 04:00:24;;;;;;;0.80;0.70;;;12.20;99.90;;;;;;5076245;28;20452;-79
2022/10/10 04:02:52;;;;;;;1.83;0.90;;;12.20;99.90;;;;;;5076101;28;20452;-79
2022/10/10 04:05:19;;;;;;;1.97;0.97;;;12.20;99.90;;;;;;5075801;28;20903;-79
2022/10/10 04:07:45;;;;;;;1.13;0.83;;;12.20;99.90;;;;;;5075934;28;20453;-79
2022/10/10 04:10:12;;;;;;;1.67;0.67;;;12.20;99.90;;;;;;5076229;28;20445;-79
2022/10/10 04:12:40;;;;;;;2.60;0.70;;;12.30;99.90;;;;;;5076362;28;20450;-79
2022/10/10 04:15:08;;;;;;;0.43;0.43;;;12.30;99.90;;;;;;5075637;28;20980;-79
2022/10/10 04:17:35;;;;;;;1.17;0.70;;;12.30;99.90;;;;;;5075841;28;20477;-79
2022/10/10 04:20:01;;;;;;;0.60;0.50;;;12.20;99.90;;;;;;5075578;28;20964;-79
2022/10/10 04:22:28;;;;;;;0.53;0.53;;;12.20;99.90;;;;;;5076239;28;20434;-79
2022/10/10 04:24:55;;;;;;;1.47;0.60;;;12.20;99.90;;;;;;5075890;28;20472;-79
2022/10/10 04:27:21;;;;;;;0.93;0.60;;;12.20;99.90;;;;;;5075286;28;20448;-79
2022/10/10 04:29:50;;;;;;;0.80;0.80;;;12.20;99.90;;;;;;5075750;28;20449;-78
2022/10/10 04:32:17;;;;;;;1.83;0.90;;;12.20;99.90;;;;;;5075702;28;20445;-79
2022/10/10 04:34:43;;;;;;;0.60;0.60;;;12.20;99.90;;;;;;5075734;28;20478;-79
2022/10/10 04:37:10;;;;;;;1.63;0.70;;;12.20;99.90;;;;;;5075599;28;20485;-79
2022/10/10 04:39:37;;;;;;;0.50;0.50;;;12.20;99.90;;;;;;5075460;28;20793;-79
2022/10/10 04:42:04;;;;;;;0.90;0.90;;;12.10;99.90;;;;;;5076038;28;20825;-79
2022/10/10 04:44:30;;;;;;;4.70;0.70;;;12.10;99.90;;;;;;5075517;28;20845;-79
2022/10/10 04:46:58;;;;;;;1.20;0.90;;;12.10;99.90;;;;;;5075463;28;20442;-79
2022/10/10 04:49:25;;;;;;;9.43;1.27;;;12.10;99.90;;;;;;5075408;28;20449;-79
2022/10/10 04:51:52;;;;;;;0.70;0.60;;;12.10;99.90;;;;;;5075545;28;20449;-79
2022/10/10 04:54:19;;;;;;;0.80;0.77;;;12.10;99.90;;;;;;5074947;28;21004;-79
2022/10/10 04:56:46;;;;;;;8.60;1.23;;;12.20;99.90;;;;;;5075287;28;20486;-79
2022/10/10 04:59:13;;;;;;;0.83;0.70;;;12.20;99.90;;;;;;5075359;28;20445;-78
2022/10/10 05:01:39;;;;;;;1.27;0.70;;;12.30;99.90;;;;;;5075411;28;20442;-78
2022/10/10 05:04:07;;;;;;;0.70;0.70;;;12.30;99.90;;;;;;5074662;28;20500;-78
2022/10/10 05:06:34;;;;;;;1.90;0.70;;;12.30;99.90;;;;;;5075199;28;20454;-78
2022/10/10 05:09:01;;;;;;;0.80;0.80;;;12.30;99.90;;;;;;5075144;28;20453;-78
2022/10/10 05:11:28;;;;;;;0.90;0.90;;;12.20;99.90;;;;;;5075111;28;20475;-78
2022/10/10 05:13:55;;;;;;;0.93;0.93;;;12.20;99.90;;;;;;5075009;28;20449;-78
2022/10/10 05:16:21;;;;;;;1.07;0.97;;;12.10;99.90;;;;;;5074968;28;20477;-77
2022/10/10 05:18:48;;;;;;;0.60;0.57;;;12.10;99.90;;;;;;5074910;28;20446;-78
2022/10/10 05:21:16;;;;;;;0.70;0.70;;;12.10;99.90;;;;;;5074536;28;20956;-78
2022/10/10 05:23:43;;;;;;;0.87;0.60;;;12.00;99.90;;;;;;5074707;28;20465;-78
2022/10/10 05:26:10;;;;;;;0.60;0.60;;;12.00;99.90;;;;;;5074725;28;20453;-78
2022/10/10 05:28:37;;;;;;;0.67;0.60;;;12.00;99.90;;;;;;5074610;28;20453;-78
2022/10/10 05:31:05;;;;;;;0.80;0.50;;;11.90;99.90;;;;;;5074545;28;20452;-78
2022/10/10 05:33:33;;;;;;;2.30;0.73;;;12.00;99.90;;;;;;5074559;28;20888;-78
2022/10/10 05:36:05;;;;;;;2.70;0.70;;;12.00;99.90;;;;;;5074319;28;20477;-78
2022/10/10 05:38:34;;;;;;;0.60;0.57;;;11.90;99.90;;;;;;5073867;28;20449;-77
2022/10/10 05:41:01;;;;;;;1.60;0.60;;;11.90;99.90;;;;;;5074458;28;20445;-78
2022/10/10 05:43:27;;;;;;;1.67;1.20;;;11.90;99.90;;;;;;5074063;28;20449;-81
2022/10/10 05:45:54;;;;;;;0.70;0.60;;;11.90;99.90;;;;;;5074020;28;20469;-81
2022/10/10 05:48:21;;;;;;;1.33;0.80;;;11.90;99.90;;;;;;5074011;28;20941;-81
2022/10/10 05:50:49;;;;;;;0.67;0.67;;;11.90;99.90;;;;;;5074313;28;20452;-81
2022/10/10 05:53:16;;;;;;;0.70;0.67;;;11.90;99.90;;;;;;5074271;28;20457;-81
2022/10/10 05:55:45;;;;;;;1.10;0.70;;;11.90;99.90;;;;;;5074206;28;20810;-81
2022/10/10 05:58:13;;;;;;;0.60;0.60;;;11.90;99.90;;;;;;5074177;28;20489;-81
2022/10/10 06:00:39;;;;;;;0.63;0.63;;;11.90;99.90;;;;;;5074208;28;20496;-81
2022/10/10 06:03:07;;;;;;;2.73;0.70;;;12.00;99.90;;;;;;5073596;28;20816;-81
2022/10/10 06:05:34;;;;;;;1.40;0.73;;;12.10;99.90;;;;;;5074107;28;20488;-81
2022/10/10 06:08:01;;;;;;;1.60;0.83;;;12.10;99.90;;;;;;5073745;28;20933;-81
2022/10/10 06:10:27;;;;;;;0.97;0.60;;;12.20;99.90;;;;;;5074055;28;20805;-81
2022/10/10 06:12:56;;;;;;;1.70;0.60;;;12.20;99.90;;;;;;5073959;28;20452;-81
2022/10/10 06:15:22;;;;;;;1.07;0.60;;;12.30;99.90;;;;;;5073838;28;20474;-81
2022/10/10 06:17:49;;;;;;;1.47;1.27;;;12.40;99.90;;;;;;5073830;28;20488;-81
2022/10/10 06:20:16;;;;;;;0.77;0.60;;;12.40;99.90;;;;;;5073821;28;20453;-81
2022/10/10 06:22:43;;;;;;;0.80;0.80;;;12.50;99.90;;;;;;5073780;28;20445;-81
2022/10/10 06:25:09;;;;;;;3.40;0.70;;;12.50;99.90;;;;;;5073846;28;20477;-81
2022/10/10 06:27:36;;;;;;;1.10;0.90;;;12.60;99.90;;;;;;5073713;28;20442;-81
2022/10/10 06:30:06;;;;;;;1.23;0.93;;;12.70;99.90;;;;;;5073688;28;20454;-82
2022/10/10 06:32:32;;;;;;;0.50;0.50;;;12.70;99.90;;;;;;5073830;28;20446;-82
2022/10/10 06:34:59;;;;;;;1.90;1.07;;;12.80;99.90;;;;;;5073504;28;20470;-82
2022/10/10 06:37:26;;;;;;;2.80;0.80;;;12.80;99.90;;;;;;5073243;28;20820;-82
2022/10/10 06:39:53;;;;;;;0.70;0.70;;;12.90;99.90;;;;;;5073582;28;20449;-82
2022/10/10 06:42:19;;;;;;;0.90;0.67;;;13.00;99.90;;;;;;5073527;28;20450;-82
2022/10/10 06:44:46;;;;;;;0.70;0.70;;;13.10;99.90;;;;;;5073488;28;20465;-82
2022/10/10 06:47:15;;;;;;;0.80;0.57;;;13.10;99.90;;;;;;5073227;28;20902;-82
2022/10/10 06:49:42;;;;;;;1.67;0.93;;;13.10;99.90;;;;;;5073315;28;20456;-82
2022/10/10 06:52:09;;;;;;;0.90;0.53;;;13.20;99.90;;;;;;5073631;28;20499;-82
2022/10/10 06:54:36;;;;;;;1.73;0.90;;;13.20;99.90;;;;;;5073301;28;20480;-82
2022/10/10 06:57:02;;;;;;;0.93;0.60;;;13.20;99.90;;;;;;5073302;28;20477;-82
2022/10/10 06:59:29;;;;;;;5.30;1.30;;;13.20;99.90;;;;;;5073350;28;20453;-82
2022/10/10 07:01:56;;;;;;;1.13;0.83;;;13.20;99.90;;;;;;5073322;28;20545;-82
2022/10/10 07:04:24;;;;;;;1.43;0.93;;;13.20;99.90;;;;;;5072756;28;20494;-82
2022/10/10 07:06:51;;;;;;;1.10;0.90;;;13.20;99.90;;;;;;5074062;28;20446;-82
2022/10/10 07:09:19;;;;;;;1.20;0.90;;;13.20;99.90;;;;;;5073252;28;20449;-82
2022/10/10 07:11:46;;;;;;;1.90;1.10;;;13.30;99.90;;;;;;5073284;28;20452;-81
2022/10/10 07:14:13;;;;;;;0.80;0.80;;;13.20;99.90;;;;;;5072882;28;20473;-82
2022/10/10 07:16:40;;;;;;;1.17;1.17;;;13.20;99.90;;;;;;5073126;28;20448;-82
2022/10/10 07:19:07;;;;;;;0.87;0.80;;;13.20;99.90;;;;;;5073171;28;20442;-82
2022/10/10 07:21:35;;;;;;;1.10;0.80;;;13.20;99.90;;;;;;5073263;28;20451;-82
2022/10/10 07:24:02;;;;;;;4.47;1.50;;;13.30;99.90;;;;;;5072750;28;20984;-82
2022/10/10 07:26:30;;;;;;;0.90;0.90;;;13.30;99.90;;;;;;5073083;28;20524;-82
2022/10/10 07:28:57;;;;;;;0.83;0.83;;;13.30;99.90;;;;;;5073089;28;20482;-82
2022/10/10 07:31:23;;;;;;;0.77;0.77;;;13.40;99.90;;;;;;5072707;28;20937;-82
2022/10/10 07:33:50;;;;;;;1.57;0.87;;;13.40;99.90;;;;;;5072970;28;20809;-82
2022/10/10 07:36:18;;;;;;;0.90;0.60;;;13.40;99.90;;;;;;5072642;28;20949;-82
2022/10/10 07:38:50;;;;;;;1.97;0.80;;;13.40;99.90;;;;;;5072911;28;20534;-82
2022/10/10 07:41:18;;;;;;;1.23;0.80;;;13.50;99.90;;;;;;5072978;28;20429;-82
2022/10/10 07:43:45;;;;;;;1.53;1.07;;;13.40;99.90;;;;;;5072846;28;20547;-82
2022/10/10 07:46:16;;;;;;;0.87;0.70;;;13.50;99.90;;;;;;5072911;28;20457;-82
2022/10/10 07:48:42;;;;;;;0.77;0.70;;;13.60;99.90;;;;;;5072599;28;20520;-82
2022/10/10 07:51:10;;;;;;;0.80;0.73;;;13.70;99.90;;;;;;5072860;28;20445;-82
2022/10/10 07:53:37;;;;;;;1.70;0.90;;;13.70;99.90;;;;;;5072971;28;20451;-82
2022/10/10 07:56:06;;;;;;;1.60;1.10;;;13.70;99.90;;;;;;5072531;28;20449;-82
2022/10/10 07:58:33;;;;;;;6.33;1.03;;;13.80;99.90;;;;;;5072735;28;20485;-82
2022/10/10 08:01:04;;;;;;;1.10;0.60;;;13.80;99.90;;;;;;5072776;28;20452;-82
2022/10/10 08:03:31;;;;;;;0.80;0.60;;;13.90;99.90;;;;;;5075148;28;20841;-82
2022/10/10 08:05:58;;;;;;;1.83;0.77;;;13.90;99.90;;;;;;5076014;28;20846;-82
2022/10/10 08:08:25;;;;;;;0.83;0.70;;;13.90;99.90;;;;;;5076336;28;20448;-82
2022/10/10 08:10:51;;;;;;;1.00;0.60;;;13.90;99.90;;;;;;5076363;28;20464;-82
2022/10/10 08:13:19;;;;;;;0.80;0.60;;;14.00;99.90;;;;;;5075991;28;20452;-80
2022/10/10 08:15:50;;;;;;;1.67;1.50;;;14.00;99.90;;;;;;5079717;28;20472;-81
2022/10/10 08:18:17;;;;;;;0.60;0.60;;;14.00;99.90;;;;;;5076145;28;20473;-81
2022/10/10 08:20:44;;;;;;;0.60;0.53;;;14.10;99.90;;;;;;5075845;28;20952;-82
2022/10/10 08:23:11;;;;;;;1.80;0.70;;;14.10;99.90;;;;;;5076094;28;20448;-81
2022/10/10 08:25:38;;;;;;;1.03;0.60;;;14.20;99.90;;;;;;5076009;28;20548;-81
2022/10/10 08:28:05;;;;;;;0.73;0.70;;;14.30;99.90;;;;;;5076038;28;20445;-81
2022/10/10 08:30:33;;;;;;;0.80;0.60;;;14.40;99.90;;;;;;5076081;28;20449;-81
2022/10/10 08:33:00;;;;;;;0.93;0.60;;;14.40;99.90;;;;;;5075915;28;20450;-81
2022/10/10 08:35:27;;;;;;;1.70;0.80;;;14.50;99.90;;;;;;5075763;28;20534;-81
2022/10/10 08:37:54;;;;;;;1.40;0.70;;;14.60;99.90;;;;;;5075471;28;20473;-81
2022/10/10 08:40:22;;;;;;;0.63;0.53;;;14.70;99.90;;;;;;5075794;28;20446;-81
2022/10/10 08:42:53;;;;;;;1.40;1.00;;;14.80;99.90;;;;;;5075683;28;20533;-81
2022/10/10 08:45:23;;;;;;;0.73;0.73;;;14.90;99.90;;;;;;5075618;28;20477;-81
2022/10/10 08:47:54;;;;;;;0.53;0.50;;;15.00;99.90;;;;;;5076481;28;20828;-81
2022/10/10 08:50:25;;;;;;;1.70;0.80;;;15.10;99.90;;;;;;5075289;28;20434;-81
2022/10/10 08:52:57;;;;;;;1.27;0.83;;;15.20;99.90;;;;;;5075658;28;20442;-78
2022/10/10 08:55:30;;;;;;;1.20;0.57;;;15.30;99.90;;;;;;5075457;28;20469;-81
2022/10/10 08:58:00;;;;;;;2.30;0.70;;;15.50;99.90;;;;;;5075379;28;20477;-81
2022/10/10 09:00:32;;;;;;;1.67;1.47;;;15.60;99.90;;;;;;5075213;28;20502;-81
2022/10/10 09:03:00;;;;;;;0.80;0.70;;;15.70;99.90;;;;;;5075296;28;20434;-81
2022/10/10 09:05:43;;;;;;;0.67;0.60;;;15.80;99.90;;;;;;5075268;28;20466;-81
2022/10/10 09:08:23;;;;;;;1.50;1.43;;;15.80;99.90;;;;;;5075005;28;20433;-81
2022/10/10 09:10:56;;;;;;;0.80;0.60;;;15.90;99.90;;;;;;5075388;28;20438;-81
2022/10/10 09:13:31;;;;;;;0.93;0.93;;;16.00;99.90;;;;;;5075181;28;20429;-81
2022/10/10 09:16:01;;;;;;;0.50;0.40;;;16.00;99.90;;;;;;5075102;28;20461;-81
2022/10/10 09:18:45;;;;;;;1.33;0.83;;;16.00;99.90;;;;;;5075054;28;20465;-81
2022/10/10 09:21:16;;;;;;;1.90;0.60;;;16.10;99.90;;;;;;5075127;28;20437;-81
2022/10/10 09:23:49;;;;;;;0.50;0.50;;;16.30;99.90;;;;;;5074960;28;20430;-81
2022/10/10 09:26:19;;;;;;;1.03;0.63;;;16.50;99.90;;;;;;5075005;28;20430;-81
2022/10/10 09:28:52;;;;;;;2.30;0.60;;;16.60;99.90;;;;;;5075193;28;20425;-81
2022/10/10 09:31:23;;;;;;;0.97;0.70;;;16.70;99.90;;;;;;5074497;28;20496;-81
2022/10/10 09:33:57;;;;;;;0.50;0.50;;;16.80;99.90;;;;;;5075143;28;20796;-81
2022/10/10 09:36:29;;;;;;;0.60;0.50;;;16.80;99.90;;;;;;5074775;28;20434;-81
2022/10/10 09:38:59;;;;;;;0.60;0.60;;;17.00;99.90;;;;;;5074618;28;20473;-81
2022/10/10 09:41:33;;;;;;;0.67;0.67;;;17.30;99.90;;;;;;5074784;28;20442;-81
2022/10/10 09:44:02;;;;;;;0.67;0.57;;;17.40;99.90;;;;;;5074529;28;20469;-81
2022/10/10 09:46:29;;;;;;;12.03;0.80;;;17.60;99.90;;;;;;5074188;28;20448;-81
2022/10/10 09:48:57;;;;;;;0.70;0.57;;;17.50;99.90;;;;;;5074420;28;20445;-81
2022/10/10 09:51:24;;;;;;;0.80;0.80;;;17.40;99.90;;;;;;5074372;28;20460;-81
2022/10/10 09:53:51;;;;;;;0.93;0.60;;;17.40;99.90;;;;;;5073942;28;20964;-81
2022/10/10 09:56:21;;;;;;;0.60;0.60;;;17.30;99.90;;;;;;5074310;28;20452;-81
2022/10/10 09:58:50;;;;;;;0.80;0.70;;;17.30;99.90;;;;;;5074071;28;20845;-81
2022/10/10 10:01:19;;;;;;;0.60;0.50;;;17.40;99.90;;;;;;5074460;28;20445;-81
2022/10/10 10:04:11;;;;;;;0.60;0.50;;;17.30;99.90;;;;;;5073690;28;20834;-81
2022/10/10 10:06:38;;;;;;;0.87;0.70;;;17.50;99.90;;;;;;5074139;28;20445;-81
2022/10/10 10:09:06;;;;;;;3.80;0.60;;;17.50;99.90;;;;;;5073808;28;20807;-81
2022/10/10 10:11:35;;;;;;;2.30;0.60;;;17.60;99.90;;;;;;5074028;28;20445;-81
2022/10/10 10:14:03;;;;;;;2.40;0.50;;;17.50;99.90;;;;;;5073929;28;20465;-81
2022/10/10 10:16:34;;;;;;;1.00;0.70;;;17.40;99.90;;;;;;5073594;28;20526;-81
2022/10/10 10:19:01;;;;;;;0.80;0.53;;;17.50;99.90;;;;;;5073638;28;20850;-81
2022/10/10 10:21:30;;;;;;;1.00;0.67;;;17.60;99.90;;;;;;5074122;28;20434;-81
2022/10/10 10:23:59;;;;;;;0.70;0.60;;;17.70;99.90;;;;;;5073990;28;20465;-81
2022/10/10 10:26:30;;;;;;;0.50;0.50;;;17.70;99.90;;;;;;5073328;28;20461;-81
2022/10/10 10:28:58;;;;;;;0.70;0.40;;;17.70;99.90;;;;;;5073796;28;20520;-81
2022/10/10 10:31:39;;;;;;;1.27;1.17;;;17.70;99.90;;;;;;5073711;28;20528;-81
2022/10/10 10:34:24;;;;;;;0.97;0.70;;;17.80;99.90;;;;;;5073631;28;20465;-81
2022/10/10 10:36:57;;;;;;;1.10;0.80;;;17.80;99.90;;;;;;5073408;28;20445;-81
2022/10/10 10:39:38;;;;;;;0.40;0.40;;;17.90;99.90;;;;;;5073562;28;20461;-81
2022/10/10 10:42:19;;;;;;;0.67;0.60;;;18.00;99.90;;;;;;5073293;28;20921;-81
2022/10/10 10:44:54;;;;;;;0.53;0.50;;;18.00;99.90;;;;;;5073537;28;20465;-81
2022/10/10 10:47:36;;;;;;;0.40;0.40;;;18.00;99.90;;;;;;5073764;28;20425;-81
2022/10/10 10:50:23;;;;;;;0.90;0.73;;;18.30;99.90;;;;;;5073578;28;20418;-81
2022/10/10 10:52:58;;;;;;;1.27;0.90;;;18.50;99.90;;;;;;5073725;28;20444;-81
2022/10/10 10:55:39;;;;;;;0.90;0.63;;;18.80;99.90;;;;;;5073396;28;20465;-81
2022/10/10 10:58:35;;;;;;;0.70;0.70;;;18.80;99.90;;;;;;5073402;28;20476;-81
2022/10/10 11:01:05;;;;;;;0.67;0.67;;;18.90;99.90;;;;;;5064231;28;20466;-81
2022/10/10 11:03:46;;;;;;;0.60;0.60;;;18.90;99.90;;;;;;5072917;28;20550;-81
2022/10/10 11:06:35;;;;;;;0.50;0.50;;;19.10;99.90;;;;;;5073085;28;20444;-81
2022/10/10 11:09:13;;;;;;;1.00;0.70;;;19.20;99.90;;;;;;5073868;28;20430;-82
2022/10/10 11:11:55;;;;;;;0.80;0.70;;;19.20;99.90;;;;;;5073560;28;20440;-82
2022/10/10 11:14:38;;;;;;;1.70;0.67;;;19.20;99.90;;;;;;5073197;28;20466;-81
2022/10/10 11:17:11;;;;;;;1.90;0.70;;;19.30;99.90;;;;;;5073534;28;20433;-81
2022/10/10 11:19:42;;;;;;;0.90;0.70;;;19.40;99.90;;;;;;5072851;28;20473;-81
2022/10/10 11:22:13;;;;;;;1.47;0.93;;;19.40;99.90;;;;;;5072884;28;20436;-81
2022/10/10 11:24:50;;;;;;;5.40;0.80;;;19.60;99.90;;;;;;5073114;28;20474;-81
2022/10/10 11:27:21;;;;;;;1.07;0.97;;;19.60;99.90;;;;;;5072841;28;20897;-82
2022/10/10 11:29:56;;;;;;;1.10;0.80;;;19.60;99.90;;;;;;5073140;28;20425;-82
2022/10/10 11:32:30;;;;;;;3.70;0.83;;;19.60;99.90;;;;;;5073141;28;20437;-81
2022/10/10 11:35:12;;;;;;;2.30;0.77;;;19.70;99.90;;;;;;5072751;28;20988;-81
2022/10/10 11:37:45;;;;;;;0.87;0.77;;;19.60;99.90;;;;;;5074378;28;20436;-81
2022/10/10 11:40:26;;;;;;;2.50;0.67;;;19.60;99.90;;;;;;5076824;28;20501;-81
2022/10/10 11:42:59;;;;;;;0.70;0.60;;;19.60;99.90;;;;;;5076943;28;20429;-81
2022/10/10 11:45:32;;;;;;;2.87;0.80;;;19.60;99.90;;;;;;5076509;28;20481;-82
2022/10/10 11:48:13;;;;;;;0.70;0.70;;;19.60;99.90;;;;;;5076820;28;20425;-81
2022/10/10 11:50:42;;;;;;;6.13;1.00;;;19.60;99.90;;;;;;5076716;28;20437;-80
2022/10/10 11:53:17;;;;;;;1.10;0.60;;;19.50;99.90;;;;;;5076653;28;20453;-81
2022/10/10 11:55:52;;;;;;;1.83;0.80;;;19.50;99.90;;;;;;5076641;28;20473;-81
2022/10/10 11:58:29;;;;;;;0.87;0.87;;;19.50;99.90;;;;;;5076521;28;20440;-81
2022/10/10 12:01:01;;;;;;;0.60;0.60;;;19.40;99.90;;;;;;5076593;28;20429;-81
2022/10/10 12:03:28;;;;;;;1.00;0.60;;;19.40;99.90;;;;;;5076042;28;20483;-82
2022/10/10 12:05:59;;;;;;;1.37;0.73;;;19.40;99.90;;;;;;5076363;28;20469;-81
2022/10/10 12:08:34;;;;;;;4.43;0.80;;;19.30;99.90;;;;;;5076124;28;20914;-81
2022/10/10 12:11:09;;;;;;;1.13;0.70;;;19.30;99.90;;;;;;5076056;28;20908;-82
2022/10/10 12:13:39;;;;;;;1.30;0.70;;;19.20;99.90;;;;;;5076322;28;20440;-81
2022/10/10 12:16:09;;;;;;;1.43;0.67;;;19.20;99.90;;;;;;5075978;28;20434;-81
2022/10/10 12:18:42;;;;;;;1.63;1.00;;;19.10;99.90;;;;;;5076157;28;20485;-81
2022/10/10 12:21:13;;;;;;;1.20;0.87;;;19.20;99.90;;;;;;5075849;28;20444;-81
2022/10/10 12:23:41;;;;;;;3.07;0.70;;;19.10;99.90;;;;;;5076297;28;20519;-81
2022/10/10 12:26:16;;;;;;;2.00;0.80;;;19.10;99.90;;;;;;5075787;28;20548;-81
2022/10/10 12:29:01;;;;;;;1.10;0.60;;;19.10;99.90;;;;;;5079683;28;20932;-81
2022/10/10 12:31:36;;;;;;;0.73;0.53;;;19.00;99.90;;;;;;5075709;28;20796;-81
2022/10/10 12:34:13;;;;;;;0.70;0.60;;;19.00;99.90;;;;;;5075960;28;20457;-81
2022/10/10 12:37:19;;;;;;;1.13;1.03;;;19.00;99.90;;;;;;5076166;28;20426;-81
2022/10/10 12:40:18;;;;;;;0.80;0.80;;;19.00;99.90;;;;;;5075487;28;20526;-82
2022/10/10 12:43:04;;;;;;;3.73;1.77;;;18.90;99.90;;;;;;5013783;28;20428;-81
2022/10/10 12:45:57;;;;;;;5.13;1.10;;;18.90;99.90;;;;;;5069562;28;20477;-82
2022/10/10 12:48:25;;;;;;;0.50;0.50;;;19.00;99.90;;;;;;5075082;28;21050;-81
2022/10/10 12:50:56;;;;;;;5.40;0.73;;;18.90;99.90;;;;;;5075356;28;20953;-81
2022/10/10 12:53:26;;;;;;;2.53;0.80;;;19.00;99.90;;;;;;5075720;28;20421;-81
2022/10/10 12:55:55;;;;;;;0.40;0.40;;;18.90;99.90;;;;;;5075174;28;20461;-82
2022/10/10 12:58:27;;;;;;;3.70;0.70;;;19.00;99.90;;;;;;5075425;28;20453;-81
2022/10/10 13:00:56;;;;;;;2.30;0.70;;;19.00;99.90;;;;;;5075490;28;20434;-81
2022/10/10 13:03:30;;;;;;;0.70;0.60;;;19.00;99.90;;;;;;5075255;28;20489;-81
2022/10/10 13:06:02;;;;;;;0.70;0.50;;;19.10;99.90;;;;;;5075046;28;20469;-81